Time;durP1;ratioP1;P1;durP2;ratioP2;P2;SDS_P1;SDS_P2;PMS_P1;PMS_P2;Temp;Humidity;BMP_temperature;BMP_pressure;BME280_temperature;BME280_humidity;BME280_pressure;Samples;Min_cycle;Max_cycle;Signal;HPM_P1;HPM_P2
2022/07/16 00:02:32;;;;;;;17.02;16.02;;;22.80;47.40;;;;;;5036007;28;20049;-81
2022/07/16 00:04:58;;;;;;;15.52;14.52;;;22.90;47.30;;;;;;5034913;28;20049;-81
2022/07/16 00:07:24;;;;;;;15.35;14.18;;;22.80;47.30;;;;;;5034975;28;20373;-81
2022/07/16 00:09:50;;;;;;;16.08;14.55;;;22.70;47.40;;;;;;5034138;28;20046;-81
2022/07/16 00:12:16;;;;;;;15.10;14.15;;;22.70;47.70;;;;;;5033226;28;20069;-81
2022/07/16 00:14:43;;;;;;;14.95;14.05;;;22.60;47.80;;;;;;5035486;28;20034;-81
2022/07/16 00:17:09;;;;;;;15.57;14.57;;;22.60;47.90;;;;;;5015426;28;20042;-81
2022/07/16 00:19:35;;;;;;;15.93;14.70;;;22.50;47.90;;;;;;5032668;28;20435;-81
2022/07/16 00:22:01;;;;;;;16.88;15.80;;;22.50;48.00;;;;;;5031626;28;20383;-81
2022/07/16 00:24:27;;;;;;;16.20;14.68;;;22.50;47.70;;;;;;5014871;28;20033;-81
2022/07/16 00:26:53;;;;;;;16.20;14.93;;;22.60;47.90;;;;;;5035986;28;20042;-82
2022/07/16 00:29:20;;;;;;;16.23;14.80;;;22.60;47.70;;;;;;5015857;28;20036;-81
2022/07/16 00:31:47;;;;;;;15.15;14.23;;;22.50;48.20;;;;;;5031427;28;20045;-81
2022/07/16 00:34:13;;;;;;;15.77;14.70;;;22.40;48.30;;;;;;5014030;28;20030;-81
2022/07/16 00:36:39;;;;;;;14.93;13.85;;;22.30;48.10;;;;;;5028909;28;20382;-81
2022/07/16 00:39:06;;;;;;;15.95;14.75;;;22.40;48.30;;;;;;5017971;28;20030;-81
2022/07/16 00:41:33;;;;;;;14.95;13.98;;;22.40;48.30;;;;;;4998685;28;20060;-81
2022/07/16 00:44:04;;;;;;;15.75;14.57;;;22.20;48.40;;;;;;5031807;28;20025;-81
2022/07/16 00:46:30;;;;;;;15.38;14.20;;;22.20;48.60;;;;;;5014331;28;20034;-81
2022/07/16 00:48:57;;;;;;;14.90;14.00;;;22.20;48.40;;;;;;5034596;28;20028;-81
2022/07/16 00:51:23;;;;;;;14.82;13.77;;;22.10;48.70;;;;;;5031484;28;20029;-81
2022/07/16 00:53:49;;;;;;;14.55;13.55;;;22.10;48.90;;;;;;5035249;28;20052;-81
2022/07/16 00:56:16;;;;;;;14.48;13.38;;;22.10;48.90;;;;;;5035787;28;20033;-81
2022/07/16 00:58:43;;;;;;;14.07;13.13;;;22.00;49.30;;;;;;5035662;28;20068;-81
2022/07/16 01:01:09;;;;;;;14.00;13.05;;;21.90;49.10;;;;;;5014100;28;20044;-81
2022/07/16 01:03:35;;;;;;;14.25;13.10;;;21.90;49.40;;;;;;5031316;28;20040;-81
2022/07/16 01:06:02;;;;;;;14.27;13.18;;;21.90;49.50;;;;;;5035004;28;20394;-81
2022/07/16 01:08:28;;;;;;;13.70;12.93;;;21.80;49.40;;;;;;5034113;28;20400;-81
2022/07/16 01:10:55;;;;;;;14.20;13.20;;;21.80;49.60;;;;;;5035487;28;20037;-82
2022/07/16 01:13:21;;;;;;;13.75;12.77;;;21.70;49.70;;;;;;5015109;28;20032;-81
2022/07/16 01:15:47;;;;;;;13.00;12.07;;;21.60;49.70;;;;;;5031986;28;20040;-81
2022/07/16 01:18:13;;;;;;;13.57;12.48;;;21.60;50.00;;;;;;5032701;28;20033;-81
2022/07/16 01:20:40;;;;;;;14.07;12.70;;;21.50;50.10;;;;;;5034684;28;20025;-81
2022/07/16 01:23:06;;;;;;;14.48;13.10;;;21.50;50.10;;;;;;5034996;28;20048;-81
2022/07/16 01:25:32;;;;;;;13.95;13.05;;;21.50;50.00;;;;;;5035073;28;20400;-81
2022/07/16 01:27:58;;;;;;;13.55;12.70;;;21.50;50.20;;;;;;5030239;28;20017;-81
2022/07/16 01:30:24;;;;;;;13.85;12.73;;;21.50;50.20;;;;;;5012573;28;20708;-81
2022/07/16 01:32:50;;;;;;;13.82;12.65;;;21.40;50.10;;;;;;5034590;28;20392;-81
2022/07/16 01:35:18;;;;;;;13.77;12.57;;;21.40;50.50;;;;;;5037751;28;20052;-81
2022/07/16 01:37:44;;;;;;;13.20;12.15;;;21.30;50.80;;;;;;5041219;28;20472;-81
2022/07/16 01:40:10;;;;;;;13.23;12.45;;;21.30;50.60;;;;;;5034838;28;20033;-81
2022/07/16 01:42:36;;;;;;;12.82;11.98;;;21.30;50.50;;;;;;5028778;28;20495;-81
2022/07/16 01:45:02;;;;;;;12.77;11.88;;;21.30;50.70;;;;;;5035228;28;20037;-81
2022/07/16 01:47:28;;;;;;;13.68;12.68;;;21.20;50.80;;;;;;5030132;28;20045;-81
2022/07/16 01:49:54;;;;;;;13.02;12.23;;;21.20;50.90;;;;;;5034870;28;20033;-81
2022/07/16 01:52:21;;;;;;;13.02;12.23;;;21.20;50.80;;;;;;5030843;28;20029;-80
2022/07/16 01:54:52;;;;;;;12.85;11.85;;;21.20;50.90;;;;;;5011879;28;20032;-81
2022/07/16 01:57:18;;;;;;;12.73;11.82;;;21.10;50.80;;;;;;5015211;28;20030;-81
2022/07/16 01:59:44;;;;;;;12.63;11.82;;;21.00;51.30;;;;;;5017441;28;20040;-81
2022/07/16 02:02:11;;;;;;;12.63;11.63;;;21.00;51.30;;;;;;5032619;28;20053;-81
2022/07/16 02:04:38;;;;;;;12.27;11.48;;;20.90;51.70;;;;;;5014290;28;20021;-81
2022/07/16 02:07:05;;;;;;;12.40;11.43;;;20.90;51.70;;;;;;5014149;28;20399;-81
2022/07/16 02:09:31;;;;;;;12.43;11.40;;;20.80;52.00;;;;;;5011958;28;20029;-81
2022/07/16 02:11:57;;;;;;;12.23;11.50;;;20.80;52.00;;;;;;5049555;28;20024;-81
2022/07/16 02:14:23;;;;;;;13.35;12.45;;;20.70;52.10;;;;;;5033602;28;20033;-80
2022/07/16 02:16:49;;;;;;;12.93;11.77;;;20.70;52.20;;;;;;5030121;28;20029;-81
2022/07/16 02:19:15;;;;;;;12.10;11.20;;;20.70;52.20;;;;;;5030495;28;20387;-81
2022/07/16 02:21:41;;;;;;;13.35;12.30;;;20.60;52.40;;;;;;5029153;28;20037;-81
2022/07/16 02:24:07;;;;;;;12.98;11.85;;;20.70;52.20;;;;;;5032672;28;20022;-81
2022/07/16 02:26:33;;;;;;;13.65;11.60;;;20.70;52.00;;;;;;5034561;28;20384;-81
2022/07/16 02:29:00;;;;;;;12.50;11.60;;;20.60;52.50;;;;;;5013492;28;20044;-80
2022/07/16 02:31:26;;;;;;;12.68;11.63;;;20.50;52.70;;;;;;5016032;28;20479;-80
2022/07/16 02:33:52;;;;;;;12.38;11.55;;;20.50;52.70;;;;;;5011125;28;20034;-81
2022/07/16 02:36:18;;;;;;;12.38;11.50;;;20.40;52.70;;;;;;5027910;28;20049;-81
2022/07/16 02:38:44;;;;;;;12.45;11.52;;;20.40;53.00;;;;;;5017263;28;20356;-80
2022/07/16 02:41:10;;;;;;;13.20;12.30;;;20.40;52.90;;;;;;5033850;28;20476;-81
2022/07/16 02:43:36;;;;;;;12.88;12.00;;;20.50;52.80;;;;;;4997101;28;20045;-81
2022/07/16 02:46:02;;;;;;;13.30;12.30;;;20.50;52.90;;;;;;5029199;28;20033;-81
2022/07/16 02:48:28;;;;;;;12.80;11.95;;;20.40;52.90;;;;;;5030243;28;20026;-81
2022/07/16 02:50:54;;;;;;;13.73;12.65;;;20.50;52.90;;;;;;5017236;28;20030;-81
2022/07/16 02:53:21;;;;;;;12.85;11.85;;;20.50;52.70;;;;;;5030086;28;20467;-81
2022/07/16 02:55:47;;;;;;;13.20;12.18;;;20.50;52.90;;;;;;5013821;28;20037;-81
2022/07/16 02:58:13;;;;;;;13.75;12.95;;;20.40;52.90;;;;;;5013483;28;20479;-81
2022/07/16 03:00:39;;;;;;;13.18;12.27;;;20.50;52.80;;;;;;5029660;28;20048;-81
2022/07/16 03:03:05;;;;;;;12.00;11.20;;;20.30;53.00;;;;;;5033867;28;20064;-81
2022/07/16 03:05:31;;;;;;;11.98;11.07;;;20.20;53.40;;;;;;5015045;28;20026;-81
2022/07/16 03:07:57;;;;;;;11.80;10.95;;;20.20;53.60;;;;;;5033782;28;20037;-80
2022/07/16 03:10:23;;;;;;;11.90;11.07;;;20.10;53.70;;;;;;5030115;28;20040;-80
2022/07/16 03:12:49;;;;;;;11.77;10.65;;;20.10;53.70;;;;;;5010664;28;20022;-81
2022/07/16 03:15:15;;;;;;;12.10;11.23;;;20.00;54.00;;;;;;5030162;28;20021;-81
2022/07/16 03:17:41;;;;;;;11.52;10.63;;;20.00;54.10;;;;;;5033333;28;20048;-80
2022/07/16 03:20:08;;;;;;;11.93;11.15;;;20.00;54.00;;;;;;5015998;28;20396;-81
2022/07/16 03:22:36;;;;;;;11.77;10.80;;;20.00;54.00;;;;;;5030084;28;20049;-81
2022/07/16 03:25:02;;;;;;;11.68;10.98;;;19.90;54.20;;;;;;5016776;28;20135;-80
2022/07/16 03:27:28;;;;;;;11.90;11.00;;;19.80;54.30;;;;;;5015168;28;20041;-80
2022/07/16 03:29:54;;;;;;;12.25;11.45;;;19.70;54.20;;;;;;5004548;28;20037;-81
2022/07/16 03:32:20;;;;;;;11.60;10.80;;;19.80;54.00;;;;;;5036776;28;20472;-81
2022/07/16 03:34:46;;;;;;;11.85;10.70;;;19.80;54.30;;;;;;5019549;28;20032;-81
2022/07/16 03:37:12;;;;;;;10.45;9.77;;;19.70;54.50;;;;;;5047913;28;20372;-81
2022/07/16 03:39:38;;;;;;;11.20;10.40;;;19.70;54.20;;;;;;5032152;28;20036;-81
2022/07/16 03:42:04;;;;;;;11.45;10.75;;;19.60;54.10;;;;;;5035865;28;20487;-81
2022/07/16 03:44:30;;;;;;;11.23;10.50;;;19.60;54.60;;;;;;5033147;28;20036;-81
2022/07/16 03:46:57;;;;;;;11.20;10.30;;;19.40;54.60;;;;;;5016354;28;20385;-81
2022/07/16 03:49:23;;;;;;;11.27;10.25;;;19.40;55.10;;;;;;5032530;28;20044;-81
2022/07/16 03:51:49;;;;;;;11.15;10.35;;;19.40;55.00;;;;;;5034444;28;20425;-81
2022/07/16 03:54:15;;;;;;;11.75;10.80;;;19.40;54.90;;;;;;5035271;28;20034;-81
2022/07/16 03:56:41;;;;;;;11.70;10.80;;;19.50;54.50;;;;;;5036141;28;20041;-80
2022/07/16 03:59:08;;;;;;;12.02;11.23;;;19.40;54.40;;;;;;5018838;28;20038;-81
2022/07/16 04:01:34;;;;;;;11.43;10.63;;;19.30;54.80;;;;;;5003760;28;20040;-81
2022/07/16 04:04:01;;;;;;;11.85;10.77;;;19.20;55.00;;;;;;5047901;28;20478;-80
2022/07/16 04:06:27;;;;;;;11.75;10.85;;;19.30;54.80;;;;;;4997998;28;20041;-80
2022/07/16 04:08:53;;;;;;;12.80;11.85;;;19.30;54.90;;;;;;5036015;28;20498;-81
2022/07/16 04:11:19;;;;;;;12.90;11.80;;;19.30;54.70;;;;;;5016192;28;20041;-81
2022/07/16 04:13:45;;;;;;;12.27;11.48;;;19.30;54.70;;;;;;5016423;28;20040;-81
2022/07/16 04:16:11;;;;;;;12.45;11.65;;;19.30;54.70;;;;;;5032119;28;20399;-81
2022/07/16 04:18:37;;;;;;;13.50;12.50;;;19.40;54.40;;;;;;5014374;28;20018;-81
2022/07/16 04:21:04;;;;;;;12.80;11.77;;;19.40;54.30;;;;;;5037163;28;20037;-80
2022/07/16 04:23:30;;;;;;;12.35;11.40;;;19.60;53.80;;;;;;5032383;28;20443;-80
2022/07/16 04:25:56;;;;;;;11.80;11.00;;;19.80;53.40;;;;;;5016100;28;20026;-80
2022/07/16 04:28:23;;;;;;;12.13;11.10;;;19.60;53.50;;;;;;4999565;28;20044;-80
2022/07/16 04:30:49;;;;;;;11.43;10.48;;;19.60;53.60;;;;;;5013138;28;20030;-80
2022/07/16 04:33:15;;;;;;;11.60;10.90;;;19.40;53.90;;;;;;5033258;28;20479;-80
2022/07/16 04:35:41;;;;;;;12.88;11.70;;;19.30;54.40;;;;;;5044656;28;20039;-80
2022/07/16 04:38:07;;;;;;;11.07;10.38;;;19.10;54.90;;;;;;5037946;28;20032;-80
2022/07/16 04:40:33;;;;;;;11.35;10.60;;;19.20;54.70;;;;;;5015831;28;20029;-81
2022/07/16 04:42:59;;;;;;;11.10;10.30;;;19.10;54.70;;;;;;5035087;28;20048;-80
2022/07/16 04:45:25;;;;;;;10.70;10.00;;;19.20;54.80;;;;;;4997346;28;20518;-80
2022/07/16 04:47:51;;;;;;;11.40;10.50;;;19.20;54.80;;;;;;5037072;28;20032;-81
2022/07/16 04:50:17;;;;;;;12.88;9.88;;;19.10;54.90;;;;;;5032165;28;20030;-80
2022/07/16 04:52:43;;;;;;;10.90;10.00;;;19.10;54.90;;;;;;5034563;28;20025;-80
2022/07/16 04:55:09;;;;;;;11.60;10.52;;;19.00;55.20;;;;;;5018019;28;20044;-80
2022/07/16 04:57:35;;;;;;;11.00;10.20;;;18.90;55.40;;;;;;5030156;28;20030;-80
2022/07/16 05:00:02;;;;;;;10.18;9.48;;;18.80;55.70;;;;;;5042415;28;20036;-80
2022/07/16 05:05:13;;;;;;;10.32;9.63;;;18.90;55.40;;;;;;5036180;28;20033;-80
2022/07/16 05:07:39;;;;;;;10.45;9.70;;;18.90;55.40;;;;;;5034235;28;20029;-80
2022/07/16 05:10:06;;;;;;;11.30;10.32;;;18.90;55.50;;;;;;5034995;28;20041;-80
2022/07/16 05:12:32;;;;;;;11.20;10.40;;;18.90;55.50;;;;;;5030056;28;20219;-80
2022/07/16 05:14:58;;;;;;;12.27;11.15;;;18.80;55.70;;;;;;5018608;28;20029;-80
2022/07/16 05:17:24;;;;;;;12.43;11.55;;;18.70;55.60;;;;;;5030756;28;20048;-81
2022/07/16 05:19:50;;;;;;;11.88;10.98;;;18.90;55.90;;;;;;5017633;28;20052;-80
2022/07/16 05:22:16;;;;;;;11.70;10.80;;;19.10;55.00;;;;;;5017115;28;20048;-81
2022/07/16 05:24:42;;;;;;;11.88;11.07;;;19.20;54.70;;;;;;4997568;28;20048;-81
2022/07/16 05:27:09;;;;;;;12.07;11.38;;;19.40;54.30;;;;;;5033562;28;20033;-80
2022/07/16 05:29:35;;;;;;;12.80;12.00;;;19.60;53.60;;;;;;5026019;28;20128;-81
2022/07/16 05:32:01;;;;;;;13.38;12.38;;;19.70;53.20;;;;;;5020619;28;20033;-81
2022/07/16 05:34:27;;;;;;;13.73;12.73;;;19.70;53.30;;;;;;5034530;28;20037;-80
2022/07/16 05:36:53;;;;;;;13.23;12.43;;;19.80;53.10;;;;;;5044034;28;20514;-81
2022/07/16 05:39:19;;;;;;;13.80;12.90;;;19.80;52.70;;;;;;5013130;28;20038;-80
2022/07/16 05:41:45;;;;;;;14.05;13.15;;;19.90;52.60;;;;;;5034148;28;20037;-80
2022/07/16 05:44:11;;;;;;;13.55;12.40;;;20.20;52.10;;;;;;5035088;28;20033;-81
2022/07/16 05:46:38;;;;;;;13.60;12.50;;;20.30;51.80;;;;;;5032368;28;20278;-81
2022/07/16 05:49:04;;;;;;;12.70;11.85;;;20.20;51.30;;;;;;5032513;28;20033;-81
2022/07/16 05:51:30;;;;;;;12.80;11.90;;;20.10;51.70;;;;;;5028603;28;20048;-81
2022/07/16 05:53:56;;;;;;;15.40;14.60;;;20.00;51.70;;;;;;5017678;28;20033;-81
2022/07/16 05:56:22;;;;;;;13.48;12.45;;;20.00;51.60;;;;;;5034484;28;20037;-81
2022/07/16 05:58:48;;;;;;;13.55;12.48;;;20.10;51.80;;;;;;5030862;28;20033;-81
2022/07/16 06:01:15;;;;;;;13.25;12.35;;;20.30;51.50;;;;;;5013736;28;20490;-81
2022/07/16 06:03:41;;;;;;;14.60;13.65;;;20.40;51.20;;;;;;4996782;28;20419;-80
2022/07/16 06:06:07;;;;;;;14.07;13.07;;;20.50;50.70;;;;;;5033933;28;20021;-81
2022/07/16 06:08:33;;;;;;;14.18;13.25;;;20.40;51.00;;;;;;5033592;28;20052;-81
2022/07/16 06:10:59;;;;;;;14.82;13.63;;;20.50;51.00;;;;;;5030577;28;20092;-81
2022/07/16 06:13:25;;;;;;;13.77;12.95;;;20.60;50.50;;;;;;5030500;28;20041;-81
2022/07/16 06:15:51;;;;;;;13.75;12.85;;;20.60;50.60;;;;;;5012709;28;20069;-81
2022/07/16 06:18:17;;;;;;;13.52;12.73;;;20.70;50.60;;;;;;5014745;28;20033;-81
2022/07/16 06:20:43;;;;;;;15.48;14.32;;;20.80;50.30;;;;;;5033547;28;20030;-81
2022/07/16 06:23:09;;;;;;;15.30;14.30;;;21.00;49.90;;;;;;5016541;28;20411;-81
2022/07/16 06:25:37;;;;;;;16.70;15.70;;;21.30;49.60;;;;;;5014211;28;20045;-81
2022/07/16 06:28:04;;;;;;;17.00;16.02;;;21.50;49.10;;;;;;5030567;28;20028;-82
2022/07/16 06:30:30;;;;;;;18.08;16.98;;;21.70;48.40;;;;;;5028992;28;20046;-81
2022/07/16 06:32:56;;;;;;;17.20;16.08;;;21.80;48.00;;;;;;5035096;28;20029;-82
2022/07/16 06:35:22;;;;;;;18.77;17.30;;;21.90;47.60;;;;;;5039197;28;20044;-82
2022/07/16 06:37:48;;;;;;;18.65;17.30;;;21.90;47.60;;;;;;5038658;28;20026;-82
2022/07/16 06:40:14;;;;;;;17.92;16.70;;;21.90;47.30;;;;;;5016571;28;20129;-82
2022/07/16 06:42:40;;;;;;;17.23;16.23;;;21.90;47.60;;;;;;5030420;28;20504;-82
2022/07/16 06:45:06;;;;;;;17.40;16.40;;;21.90;47.50;;;;;;5032292;28;20040;-82
2022/07/16 06:47:33;;;;;;;18.52;17.17;;;22.10;47.50;;;;;;5033324;28;20034;-82
2022/07/16 06:49:59;;;;;;;18.40;17.40;;;22.30;46.70;;;;;;5032103;28;20037;-82
2022/07/16 06:52:25;;;;;;;19.42;18.23;;;22.50;46.60;;;;;;5030088;28;20048;-82
2022/07/16 06:54:51;;;;;;;20.60;19.27;;;22.60;46.30;;;;;;5028090;28;20030;-82
2022/07/16 06:57:18;;;;;;;19.40;18.15;;;22.70;45.80;;;;;;5030748;28;20041;-82
2022/07/16 06:59:45;;;;;;;19.15;17.83;;;22.70;45.60;;;;;;5037297;28;20028;-82
2022/07/16 07:02:13;;;;;;;20.35;19.05;;;22.70;45.80;;;;;;5017012;28;20042;-82
2022/07/16 07:04:40;;;;;;;19.27;18.08;;;22.80;45.50;;;;;;5019751;28;20041;-82
2022/07/16 07:07:06;;;;;;;19.55;18.35;;;22.80;45.50;;;;;;5033757;28;20103;-82
2022/07/16 07:09:32;;;;;;;19.50;18.13;;;22.80;45.20;;;;;;5032249;28;20046;-82
2022/07/16 07:11:58;;;;;;;20.13;18.80;;;23.00;44.60;;;;;;5037119;28;20048;-82
2022/07/16 07:14:24;;;;;;;20.67;19.38;;;23.00;45.10;;;;;;5033687;28;20029;-82
2022/07/16 07:16:50;;;;;;;20.95;19.73;;;23.20;44.40;;;;;;5033261;28;20037;-82
2022/07/16 07:19:16;;;;;;;20.92;19.77;;;23.30;44.50;;;;;;5017006;28;20471;-82
2022/07/16 07:21:42;;;;;;;22.95;21.65;;;23.50;44.10;;;;;;5032195;28;20038;-82
2022/07/16 07:24:08;;;;;;;22.17;20.70;;;23.60;43.70;;;;;;5035047;28;20483;-83
2022/07/16 07:26:35;;;;;;;22.67;21.38;;;23.70;43.60;;;;;;5036790;28;20025;-83
2022/07/16 07:29:01;;;;;;;26.40;24.67;;;24.00;42.60;;;;;;5037742;28;20401;-82
2022/07/16 07:31:27;;;;;;;24.17;22.77;;;24.10;41.90;;;;;;5032963;28;20025;-82
2022/07/16 07:33:53;;;;;;;25.30;23.80;;;24.10;41.50;;;;;;5015139;28;20045;-82
2022/07/16 07:36:19;;;;;;;22.08;20.80;;;24.10;41.60;;;;;;5047952;28;20036;-83
2022/07/16 07:38:45;;;;;;;24.40;22.80;;;24.10;41.20;;;;;;5038345;28;20033;-82
2022/07/16 07:41:11;;;;;;;27.65;25.73;;;24.30;41.60;;;;;;5002554;28;20068;-82
2022/07/16 07:43:37;;;;;;;22.25;20.95;;;24.60;40.70;;;;;;5033308;28;20033;-83
2022/07/16 07:46:04;;;;;;;25.67;24.23;;;24.60;40.20;;;;;;5032241;28;20033;-82
2022/07/16 07:48:30;;;;;;;22.42;20.85;;;24.40;40.60;;;;;;5015144;28;20026;-82
2022/07/16 07:50:56;;;;;;;22.75;21.35;;;24.50;40.50;;;;;;5020353;28;20056;-83
2022/07/16 07:53:22;;;;;;;23.80;22.40;;;24.50;40.20;;;;;;5035312;28;20460;-83
2022/07/16 07:55:48;;;;;;;23.20;21.60;;;24.40;40.50;;;;;;5019408;28;20037;-82
2022/07/16 07:58:15;;;;;;;23.58;22.05;;;24.50;40.60;;;;;;5036682;28;20403;-83
2022/07/16 08:00:42;;;;;;;23.08;21.23;;;24.50;40.80;;;;;;5032002;28;20387;-82
2022/07/16 08:03:08;;;;;;;21.80;20.60;;;24.60;40.50;;;;;;5035735;28;20049;-82
2022/07/16 08:05:35;;;;;;;23.60;21.70;;;24.70;40.20;;;;;;5016063;28;20028;-83
2022/07/16 08:08:02;;;;;;;24.85;23.65;;;24.90;39.80;;;;;;5038612;28;20087;-83
2022/07/16 08:10:28;;;;;;;23.75;22.33;;;25.00;39.20;;;;;;5042745;28;20467;-82
2022/07/16 08:12:54;;;;;;;24.17;22.83;;;25.00;39.50;;;;;;5016044;28;20530;-83
2022/07/16 08:15:20;;;;;;;23.50;22.20;;;25.30;38.90;;;;;;5032606;28;20037;-83
2022/07/16 08:17:46;;;;;;;25.55;23.95;;;25.10;39.10;;;;;;5035011;28;20037;-83
2022/07/16 08:20:13;;;;;;;35.10;33.22;;;25.10;39.20;;;;;;5002342;28;20060;-82
2022/07/16 08:22:39;;;;;;;23.83;22.42;;;25.20;39.00;;;;;;5036314;28;20044;-82
2022/07/16 08:27:50;;;;;;;24.60;22.98;;;25.70;38.60;;;;;;5037336;28;20045;-82
2022/07/16 08:30:17;;;;;;;24.88;23.38;;;25.70;38.40;;;;;;5016037;28;20224;-83
2022/07/16 08:32:43;;;;;;;25.27;23.60;;;25.70;38.40;;;;;;5019300;28;20403;-83
2022/07/16 08:35:09;;;;;;;24.63;23.05;;;25.80;38.90;;;;;;5041235;28;20033;-83
2022/07/16 08:37:42;;;;;;;24.30;22.75;;;26.00;38.30;;;;;;5043872;28;20033;-82
2022/07/16 08:40:10;;;;;;;31.25;29.48;;;26.10;38.30;;;;;;5015941;28;20037;-83
2022/07/16 08:42:37;;;;;;;26.33;24.92;;;26.30;37.80;;;;;;5013739;28;20048;-83
2022/07/16 08:45:04;;;;;;;25.05;23.05;;;26.20;37.60;;;;;;5025709;28;20025;-82
2022/07/16 08:47:31;;;;;;;26.33;24.83;;;26.10;38.30;;;;;;5034823;28;20034;-83
2022/07/16 08:50:01;;;;;;;27.40;25.80;;;26.40;37.60;;;;;;5031880;28;20037;-83
2022/07/16 08:52:28;;;;;;;26.48;24.90;;;26.60;37.00;;;;;;5031806;28;20029;-82
2022/07/16 08:54:55;;;;;;;26.73;24.50;;;26.70;36.90;;;;;;5029387;28;20041;-83
2022/07/16 08:57:21;;;;;;;26.25;24.85;;;26.80;36.50;;;;;;5031011;28;20526;-83
2022/07/16 08:59:48;;;;;;;25.60;24.27;;;26.90;36.40;;;;;;5034766;28;20029;-83
2022/07/16 09:02:14;;;;;;;27.90;26.08;;;26.90;36.70;;;;;;5017284;28;20400;-83
2022/07/16 09:04:43;;;;;;;28.20;26.80;;;27.00;36.40;;;;;;5031449;28;20044;-84
2022/07/16 09:07:14;;;;;;;33.83;31.90;;;27.30;36.00;;;;;;5017518;28;20108;-83
2022/07/16 09:09:40;;;;;;;27.27;25.65;;;27.10;35.50;;;;;;5029619;28;20048;-83
2022/07/16 09:12:06;;;;;;;30.02;27.98;;;27.30;35.40;;;;;;5034409;28;20407;-83
2022/07/16 09:14:32;;;;;;;27.85;26.35;;;27.40;35.10;;;;;;5031421;28;20408;-83
2022/07/16 09:16:59;;;;;;;41.60;39.40;;;27.40;35.40;;;;;;5031111;28;20034;-83
2022/07/16 09:19:30;;;;;;;25.98;24.48;;;27.50;34.70;;;;;;5001685;28;20036;-83
2022/07/16 09:22:03;;;;;;;27.05;25.55;;;27.40;35.20;;;;;;4999110;28;20477;-84
2022/07/16 09:24:40;;;;;;;28.65;26.80;;;27.60;34.70;;;;;;5030123;28;20396;-83
2022/07/16 09:27:10;;;;;;;29.60;28.05;;;27.60;34.80;;;;;;5043561;28;20017;-83
2022/07/16 09:29:53;;;;;;;27.80;26.17;;;27.70;34.20;;;;;;5033977;28;20025;-83
2022/07/16 09:32:34;;;;;;;30.15;28.27;;;27.80;34.60;;;;;;5002617;28;20052;-83
2022/07/16 09:35:05;;;;;;;30.33;28.42;;;27.90;34.50;;;;;;5021927;28;20045;-82
2022/07/16 09:37:47;;;;;;;31.40;29.65;;;28.00;34.40;;;;;;5041748;28;20024;-84
2022/07/16 09:40:14;;;;;;;36.08;34.13;;;28.20;33.60;;;;;;5034864;28;20033;-83
2022/07/16 09:42:40;;;;;;;31.67;29.98;;;28.20;33.60;;;;;;4996690;28;20053;-84
2022/07/16 09:45:07;;;;;;;31.30;29.65;;;28.30;34.00;;;;;;5016581;28;20040;-83
2022/07/16 09:47:33;;;;;;;34.95;33.13;;;28.60;33.00;;;;;;5016465;28;20480;-83
2022/07/16 09:50:01;;;;;;;34.17;32.40;;;28.70;32.80;;;;;;5014512;28;20041;-83
2022/07/16 09:52:32;;;;;;;42.08;39.92;;;28.80;32.30;;;;;;5016962;28;20041;-83
2022/07/16 09:54:58;;;;;;;36.30;34.45;;;28.80;32.70;;;;;;5029778;28;20025;-83
2022/07/16 09:57:26;;;;;;;40.72;38.63;;;28.80;31.80;;;;;;5029934;28;20033;-83
2022/07/16 09:59:53;;;;;;;35.80;33.70;;;28.90;31.50;;;;;;5017901;28;20034;-83
2022/07/16 10:02:19;;;;;;;36.63;34.70;;;28.80;31.40;;;;;;5030224;28;20045;-83
2022/07/16 10:04:45;;;;;;;36.78;34.58;;;28.90;31.80;;;;;;5030812;28;20483;-83
2022/07/16 10:07:11;;;;;;;36.85;34.65;;;28.80;31.50;;;;;;5016771;28;20044;-83
2022/07/16 10:09:37;;;;;;;47.80;45.42;;;29.10;31.60;;;;;;5028550;28;20037;-83
2022/07/16 10:12:08;;;;;;;47.08;44.63;;;29.20;30.70;;;;;;5013358;28;20061;-83
2022/07/16 10:14:35;;;;;;;37.35;35.35;;;29.00;30.80;;;;;;5017643;28;20029;-83
2022/07/16 10:17:14;;;;;;;40.83;38.65;;;29.10;31.40;;;;;;5013752;28;20030;-82
2022/07/16 10:19:40;;;;;;;38.35;36.35;;;29.20;30.50;;;;;;5015021;28;20575;-83
2022/07/16 10:22:20;;;;;;;40.90;38.55;;;29.30;30.20;;;;;;5030511;28;20399;-83
2022/07/16 10:24:54;;;;;;;693.60;358.93;;;29.50;29.90;;;;;;5016474;28;20029;-83
2022/07/16 10:27:25;;;;;;;1999.90;999.90;;;29.50;29.80;;;;;;5029907;28;20040;-83
2022/07/16 10:30:18;;;;;;;1999.90;999.90;;;29.70;29.30;;;;;;5033910;28;20025;-83
2022/07/16 10:33:00;;;;;;;1999.90;999.90;;;29.70;28.80;;;;;;5028952;28;24093;-83
2022/07/16 10:35:38;;;;;;;1999.90;999.90;;;29.50;28.60;;;;;;5041491;28;20060;-83
2022/07/16 10:38:08;;;;;;;47.25;44.78;;;29.50;28.90;;;;;;5019381;28;20045;-83
2022/07/16 10:40:36;;;;;;;;;;;29.50;28.90;;;;;;5032576;28;20041;-83
2022/07/16 10:43:16;;;;;;;1999.90;999.90;;;29.50;28.90;;;;;;5045490;28;20430;-82
2022/07/16 10:45:54;;;;;;;1999.90;999.90;;;29.60;28.30;;;;;;5014314;28;20052;-83
2022/07/16 10:48:38;;;;;;;1999.90;999.90;;;29.60;28.40;;;;;;5030407;28;20029;-83
2022/07/16 10:51:18;;;;;;;1999.90;999.90;;;29.70;28.50;;;;;;5041387;28;20044;-82
2022/07/16 10:54:03;;;;;;;1999.90;999.90;;;29.80;28.70;;;;;;5033356;28;20524;-83
2022/07/16 10:56:39;;;;;;;1999.90;999.90;;;29.90;28.80;;;;;;5028933;28;20296;-83
2022/07/16 10:59:05;;;;;;;1999.90;999.90;;;29.80;27.90;;;;;;5030186;28;20041;-82
2022/07/16 11:01:31;;;;;;;1999.90;999.90;;;29.90;28.00;;;;;;5033563;28;20034;-83
2022/07/16 11:03:58;;;;;;;1999.90;999.90;;;29.80;27.70;;;;;;4998124;28;20052;-83
2022/07/16 11:06:24;;;;;;;1999.90;999.90;;;29.80;27.50;;;;;;5030715;28;20029;-83
2022/07/16 11:08:55;;;;;;;1999.90;999.90;;;29.90;28.10;;;;;;5033429;28;20060;-83
2022/07/16 11:11:22;;;;;;;1999.90;999.90;;;30.00;28.30;;;;;;5029603;28;20104;-83
2022/07/16 11:13:51;;;;;;;1999.90;999.90;;;30.20;28.50;;;;;;5013633;28;20033;-84
2022/07/16 11:16:18;;;;;;;1999.90;999.90;;;30.30;28.70;;;;;;5033443;28;20495;-83
2022/07/16 11:18:44;;;;;;;1999.90;999.90;;;30.40;29.20;;;;;;5012834;28;20495;-83
2022/07/16 11:21:10;;;;;;;1999.90;999.90;;;30.70;28.20;;;;;;5032250;28;20044;-83
2022/07/16 11:24:06;;;;;;;1999.90;999.90;;;30.70;27.00;;;;;;5016640;28;20404;-83
2022/07/16 11:26:32;;;;;;;1999.90;999.90;;;30.60;27.40;;;;;;5021173;28;20057;-83
2022/07/16 11:29:02;;;;;;;1999.90;999.90;;;30.60;27.70;;;;;;5013796;28;20034;-83
2022/07/16 11:31:29;;;;;;;;;;;30.30;28.00;;;;;;5016145;28;20042;-83
2022/07/16 11:34:04;;;;;;;1999.90;999.90;;;30.40;28.00;;;;;;5028776;28;19913;-83
2022/07/16 11:36:35;;;;;;;1999.90;999.90;;;30.50;28.40;;;;;;5011251;28;20388;-83
2022/07/16 11:39:05;;;;;;;1999.90;999.90;;;30.50;28.50;;;;;;5044057;28;20029;-83
2022/07/16 11:41:31;;;;;;;1999.90;999.90;;;30.70;28.20;;;;;;5011128;28;20045;-84
2022/07/16 11:43:58;;;;;;;1999.90;999.90;;;30.50;27.60;;;;;;5003933;28;20508;-83
2022/07/16 11:46:25;;;;;;;1999.90;999.90;;;30.20;27.70;;;;;;5018942;28;20028;-83
2022/07/16 11:48:51;;;;;;;1999.90;999.90;;;30.30;28.00;;;;;;5032375;28;20029;-83
2022/07/16 11:51:18;;;;;;;1999.90;999.90;;;30.40;28.00;;;;;;5033751;28;20041;-83
2022/07/16 11:53:54;;;;;;;1999.90;999.90;;;30.30;27.90;;;;;;5018855;28;20048;-83
2022/07/16 11:56:50;;;;;;;1999.90;999.90;;;30.40;27.90;;;;;;5033381;28;20028;-82
2022/07/16 11:59:18;;;;;;;1999.90;999.90;;;30.50;28.10;;;;;;5021923;28;20053;-83
2022/07/16 12:01:44;;;;;;;1999.90;999.90;;;30.50;28.10;;;;;;5032217;28;20534;-83
2022/07/16 12:04:10;;;;;;;1999.90;999.90;;;30.60;28.50;;;;;;5016375;28;20041;-83
2022/07/16 12:06:36;;;;;;;1999.90;999.90;;;30.80;27.80;;;;;;5014524;28;20030;-83
2022/07/16 12:09:02;;;;;;;1999.90;999.90;;;30.80;27.90;;;;;;5036922;28;20056;-83
2022/07/16 12:11:30;;;;;;;1999.90;999.90;;;30.80;28.00;;;;;;5036520;28;20021;-83
2022/07/16 12:13:56;;;;;;;1999.90;999.90;;;31.10;27.20;;;;;;5032912;28;20037;-83
2022/07/16 12:16:23;;;;;;;1999.90;999.90;;;31.00;27.00;;;;;;5032251;28;20044;-83
2022/07/16 12:19:00;;;;;;;1999.90;999.90;;;30.80;27.10;;;;;;5014789;28;20065;-83
2022/07/16 12:21:33;;;;;;;1999.90;999.90;;;30.80;27.50;;;;;;5015498;28;20044;-83
2022/07/16 12:24:00;;;;;;;1999.90;999.90;;;30.80;27.50;;;;;;5035626;28;20037;-83
2022/07/16 12:26:28;;;;;;;1999.90;999.90;;;30.80;27.50;;;;;;5032405;28;20036;-83
2022/07/16 12:28:55;;;;;;;1999.90;999.90;;;30.80;27.30;;;;;;5032829;28;20041;-83
2022/07/16 12:31:21;;;;;;;1999.90;999.90;;;30.80;27.50;;;;;;5015533;28;20033;-83